createdAt,value
2016-06-16T00:00:55.475Z,0
2016-06-16T00:01:55.338Z,0
2016-06-16T00:02:55.513Z,0
2016-06-16T00:03:55.547Z,0
2016-06-16T00:05:09.740Z,0
2016-06-16T00:05:55.583Z,0
2016-06-16T00:06:55.603Z,0
2016-06-16T00:07:55.622Z,0
2016-06-16T00:08:55.656Z,0
2016-06-16T00:10:56.302Z,0
2016-06-16T00:11:55.727Z,0
2016-06-16T00:13:09.937Z,0
2016-06-16T00:13:55.781Z,0
2016-06-16T00:14:55.643Z,0
2016-06-16T00:16:10.009Z,0
2016-06-16T00:16:55.853Z,0
2016-06-16T00:17:55.871Z,0
2016-06-16T00:19:10.080Z,0
2016-06-16T00:19:55.987Z,0
2016-06-16T00:20:55.927Z,0
2016-06-16T00:21:55.946Z,0
2016-06-16T00:22:55.980Z,0
2016-06-16T00:23:55.999Z,0
2016-06-16T00:25:10.255Z,0
2016-06-16T00:25:56.692Z,0
2016-06-16T00:26:56.086Z,0
2016-06-16T00:28:56.123Z,0
2016-06-16T00:29:56.142Z,0
2016-06-16T00:31:56.196Z,0
2016-06-16T00:32:56.230Z,0
2016-06-16T00:33:56.247Z,0
2016-06-16T00:34:56.111Z,0
2016-06-16T00:37:10.495Z,0
2016-06-16T00:38:10.513Z,0
2016-06-16T00:38:56.357Z,0
2016-06-16T00:41:56.430Z,0
2016-06-16T00:42:56.463Z,0
2016-06-16T00:43:56.482Z,0
2016-06-16T00:44:56.501Z,0
2016-06-16T00:45:56.535Z,0
2016-06-16T00:46:56.537Z,0
2016-06-16T00:48:10.748Z,0
2016-06-16T00:49:10.782Z,0
2016-06-16T00:50:56.629Z,0
2016-06-16T00:52:25.041Z,0
2016-06-16T00:52:56.681Z,0
2016-06-16T00:54:25.078Z,0
2016-06-16T00:55:10.770Z,0
2016-06-16T00:55:57.535Z,0
2016-06-16T00:56:56.772Z,0
2016-06-16T00:57:56.791Z,0
2016-06-16T00:58:56.841Z,0
2016-06-16T01:00:11.034Z,0
2016-06-16T01:01:11.069Z,0
2016-06-16T01:01:56.741Z,0
2016-06-16T01:02:56.916Z,0
2016-06-16T01:03:56.934Z,0
2016-06-16T01:04:56.968Z,0
2016-06-16T01:05:56.987Z,0
2016-06-16T01:06:57.006Z,0
2016-06-16T01:08:11.231Z,0
2016-06-16T01:09:11.249Z,0
2016-06-16T01:10:11.269Z,0
2016-06-16T01:10:56.644Z,0
2016-06-16T01:12:56.712Z,0
2016-06-16T01:13:56.730Z,0
2016-06-16T01:15:11.081Z,0
2016-06-16T01:16:11.255Z,0
2016-06-16T01:16:57.240Z,0
2016-06-16T01:17:57.274Z,0
2016-06-16T01:18:57.215Z,0
2016-06-16T01:20:11.503Z,0
2016-06-16T01:20:57.331Z,0
2016-06-16T01:21:57.224Z,0
2016-06-16T01:22:57.398Z,0
2016-06-16T01:23:57.417Z,0
2016-06-16T01:25:11.612Z,0
2016-06-16T01:25:57.487Z,0
2016-06-16T01:26:57.474Z,0
2016-06-16T01:27:57.524Z,0
2016-06-16T01:28:57.526Z,0
2016-06-16T01:29:57.561Z,0
2016-06-16T01:30:57.564Z,0
2016-06-16T01:32:11.648Z,0
2016-06-16T01:33:11.651Z,0
2016-06-16T01:33:57.636Z,0
2016-06-16T01:34:57.670Z,0
2016-06-16T01:36:11.879Z,0
2016-06-16T01:36:57.723Z,0
2016-06-16T01:37:57.726Z,0
2016-06-16T01:38:57.761Z,0
2016-06-16T01:39:57.622Z,0
2016-06-16T01:40:58.688Z,0
2016-06-16T01:41:57.832Z,0
2016-06-16T01:42:57.867Z,0
2016-06-16T01:43:57.729Z,0
2016-06-16T01:44:57.888Z,0
2016-06-16T01:45:57.923Z,0
2016-06-16T01:49:57.873Z,0
2016-06-16T01:50:58.047Z,0
2016-06-16T01:51:58.066Z,0
2016-06-16T01:52:58.085Z,0
2016-06-16T01:53:58.119Z,0
2016-06-16T01:54:58.121Z,0
2016-06-16T01:55:58.953Z,0
2016-06-16T01:56:58.175Z,0
2016-06-16T01:58:26.572Z,0
2016-06-16T01:58:58.213Z,0
2016-06-16T01:59:58.247Z,0
2016-06-16T02:00:58.265Z,0
2016-06-16T02:01:58.300Z,0
2016-06-16T02:03:12.353Z,0
2016-06-16T02:03:58.353Z,0
2016-06-16T02:05:58.405Z,0
2016-06-16T02:06:58.409Z,0
2016-06-16T02:07:58.427Z,0
2016-06-16T02:09:12.637Z,0
2016-06-16T02:09:58.481Z,0
2016-06-16T02:10:58.781Z,0
2016-06-16T02:12:12.724Z,0
2016-06-16T02:12:58.396Z,0
2016-06-16T02:13:58.587Z,0
2016-06-16T02:14:58.605Z,0
2016-06-16T02:15:58.624Z,0
2016-06-16T02:16:58.644Z,0
2016-06-16T02:17:58.661Z,0
2016-06-16T02:19:58.731Z,0
2016-06-16T02:20:58.749Z,0
2016-06-16T02:22:58.833Z,0
2016-06-16T02:23:58.805Z,0
2016-06-16T02:24:58.683Z,0
2016-06-16T02:27:58.927Z,0
2016-06-16T02:29:58.948Z,0
2016-06-16T02:30:58.982Z,0
2016-06-16T02:31:59.001Z,0
2016-06-16T02:32:58.849Z,0
2016-06-16T02:33:59.038Z,0
2016-06-16T02:35:59.092Z,0
2016-06-16T02:36:59.111Z,0
2016-06-16T02:37:59.129Z,0
2016-06-16T02:38:59.164Z,0
2016-06-16T02:40:13.357Z,5
2016-06-16T02:40:59.623Z,5
2016-06-16T02:42:13.410Z,5
2016-06-16T02:42:59.254Z,5
2016-06-16T02:43:59.272Z,5
2016-06-16T02:44:59.292Z,5
2016-06-16T02:45:59.311Z,5
2016-06-16T02:46:59.328Z,5
2016-06-16T02:47:59.363Z,5
2016-06-16T02:49:13.573Z,5
2016-06-16T02:51:13.610Z,10
2016-06-16T02:51:59.297Z,10
2016-06-16T02:52:59.488Z,10
2016-06-16T02:53:59.491Z,10
2016-06-16T02:54:59.525Z,10
2016-06-16T02:56:13.594Z,10
2016-06-16T02:57:13.909Z,10
2016-06-16T02:59:13.822Z,15
2016-06-16T02:59:59.666Z,15
2016-06-16T03:01:59.672Z,15
2016-06-16T03:02:59.706Z,15
2016-06-16T03:03:59.725Z,20
2016-06-16T03:04:59.744Z,20
2016-06-16T03:05:59.778Z,20
2016-06-16T03:07:13.988Z,20
2016-06-16T03:07:59.832Z,25
2016-06-16T03:08:59.849Z,25
2016-06-16T03:09:59.868Z,25
2016-06-16T03:10:59.902Z,25
2016-06-16T03:12:00.703Z,25
2016-06-16T03:12:59.941Z,30
2016-06-16T03:14:14.133Z,30
2016-06-16T03:14:59.992Z,30
2016-06-16T03:16:14.187Z,30
2016-06-16T03:17:14.206Z,35
2016-06-16T03:18:00.049Z,35
2016-06-16T03:19:00.084Z,35
2016-06-16T03:20:00.102Z,35
2016-06-16T03:21:00.121Z,40
2016-06-16T03:22:14.689Z,40
2016-06-16T03:23:14.349Z,40
2016-06-16T03:24:00.192Z,45
2016-06-16T03:25:00.212Z,45
2016-06-16T03:26:00.245Z,45
2016-06-16T03:27:00.373Z,45
2016-06-16T03:28:00.283Z,50
2016-06-16T03:29:14.492Z,50
2016-06-16T03:30:00.195Z,50
2016-06-16T03:31:00.355Z,55
2016-06-16T03:32:14.564Z,55
2016-06-16T03:33:28.755Z,60
2016-06-16T03:34:14.617Z,60
2016-06-16T03:35:14.620Z,60
2016-06-16T03:36:00.464Z,60
2016-06-16T03:37:00.499Z,60
2016-06-16T03:38:14.691Z,60
2016-06-16T03:39:00.535Z,65
2016-06-16T03:40:00.398Z,65
2016-06-16T03:41:00.588Z,60
2016-06-16T03:42:00.951Z,65
2016-06-16T03:43:00.625Z,70
2016-06-16T03:44:00.660Z,70
2016-06-16T03:45:00.679Z,70
2016-06-16T03:46:00.697Z,70
2016-06-16T03:47:00.716Z,70
2016-06-16T03:48:00.751Z,70
2016-06-16T03:49:00.754Z,70
2016-06-16T03:50:00.804Z,70
2016-06-16T03:51:00.823Z,70
2016-06-16T03:52:00.841Z,75
2016-06-16T03:53:00.875Z,75
2016-06-16T03:54:00.878Z,75
2016-06-16T03:56:00.775Z,80
2016-06-16T03:57:15.954Z,95
2016-06-16T03:58:00.969Z,95
2016-06-16T03:59:01.003Z,95
2016-06-16T04:00:01.038Z,100
2016-06-16T04:01:15.231Z,120
2016-06-16T04:02:01.059Z,110
2016-06-16T04:03:01.078Z,95
2016-06-16T04:04:01.113Z,90
2016-06-16T04:05:01.131Z,85
2016-06-16T04:06:01.181Z,85
2016-06-16T04:08:01.203Z,95
2016-06-16T04:09:01.221Z,205
2016-06-16T04:10:29.619Z,465
2016-06-16T04:11:01.275Z,650
2016-06-16T04:13:01.328Z,1020
2016-06-16T04:14:15.537Z,1010
2016-06-16T04:15:01.365Z,985
2016-06-16T04:16:01.384Z,1020
2016-06-16T04:17:01.437Z,1105
2016-06-16T04:18:01.511Z,1135
2016-06-16T04:19:01.569Z,1105
2016-06-16T04:20:15.873Z,1135
2016-06-16T04:21:15.921Z,1165
2016-06-16T04:23:01.782Z,1160
2016-06-16T04:24:01.674Z,1155
2016-06-16T04:25:01.895Z,1175
2016-06-16T04:26:16.112Z,1200
2016-06-16T04:27:01.862Z,1195
2016-06-16T04:28:01.980Z,1195
2016-06-16T04:29:02.019Z,1210
2016-06-16T04:30:16.238Z,1165
2016-06-16T04:31:02.082Z,1175
2016-06-16T04:32:02.120Z,1245
2016-06-16T04:33:02.156Z,1255
2016-06-16T04:34:16.354Z,1230
2016-06-16T04:35:02.213Z,1280
2016-06-16T04:36:02.077Z,1330
2016-06-16T04:37:02.269Z,1305
2016-06-16T04:38:02.289Z,1290
2016-06-16T04:39:02.324Z,1300
2016-06-16T04:40:02.359Z,1335
2016-06-16T04:41:02.395Z,1370
2016-06-16T04:42:17.323Z,1360
2016-06-16T04:43:02.448Z,1355
2016-06-16T04:44:02.483Z,1285
2016-06-16T04:45:02.502Z,1255
2016-06-16T04:46:02.552Z,1335
2016-06-16T04:47:16.761Z,1400
2016-06-16T04:48:02.605Z,1395
2016-06-16T04:49:02.625Z,1360
2016-06-16T04:50:02.658Z,1365
2016-06-16T04:51:02.709Z,1410
2016-06-16T04:52:02.743Z,1420
2016-06-16T04:53:02.605Z,1445
2016-06-16T04:54:02.796Z,1410
2016-06-16T04:55:02.830Z,1440
2016-06-16T04:56:02.864Z,1335
2016-06-16T04:57:03.414Z,1300
2016-06-16T04:58:17.108Z,1500
2016-06-16T04:59:02.952Z,1520
2016-06-16T05:00:02.986Z,1515
2016-06-16T05:01:02.864Z,1490
2016-06-16T05:02:16.932Z,1475
2016-06-16T05:03:03.089Z,1480
2016-06-16T05:04:03.124Z,1440
2016-06-16T05:05:03.142Z,1470
2016-06-16T05:06:03.191Z,1555
2016-06-16T05:07:03.211Z,1565
2016-06-16T05:08:03.245Z,1520
2016-06-16T05:09:03.295Z,1520
2016-06-16T05:11:03.364Z,1545
2016-06-16T05:12:03.538Z,1565
2016-06-16T05:13:17.608Z,1585
2016-06-16T05:14:03.295Z,1550
2016-06-16T05:15:03.330Z,1550
2016-06-16T05:16:03.520Z,1565
2016-06-16T05:17:17.745Z,1510
2016-06-16T05:18:03.589Z,1555
2016-06-16T05:19:03.639Z,1550
2016-06-16T05:20:03.657Z,1580
2016-06-16T05:21:03.535Z,1580
2016-06-16T05:22:17.916Z,1585
2016-06-16T05:24:03.982Z,1585
2016-06-16T05:25:03.844Z,1545
2016-06-16T05:26:03.863Z,1555
2016-06-16T05:27:04.789Z,1580
2016-06-16T05:28:03.948Z,1565
2016-06-16T05:29:03.810Z,1600
2016-06-16T05:30:03.843Z,1595
2016-06-16T05:31:04.034Z,1565
2016-06-16T05:32:03.913Z,1585
2016-06-16T05:33:05.478Z,1555
2016-06-16T05:34:04.169Z,1570
2016-06-16T05:35:18.222Z,1620
2016-06-16T05:36:04.206Z,1560
2016-06-16T05:37:04.240Z,1485
2016-06-16T05:38:04.118Z,1395
2016-06-16T05:40:04.359Z,1590
2016-06-16T05:41:04.424Z,1675
2016-06-16T05:42:04.880Z,1735
2016-06-16T05:43:04.463Z,1475
2016-06-16T05:44:04.512Z,1505
2016-06-16T05:45:18.722Z,1675
2016-06-16T05:46:04.565Z,1690
2016-06-16T05:47:04.615Z,1635
2016-06-16T05:49:18.859Z,1585
2016-06-16T05:50:04.718Z,1590
2016-06-16T05:51:18.786Z,1605
2016-06-16T05:52:04.786Z,1580
2016-06-16T05:53:04.664Z,1535
2016-06-16T05:54:19.046Z,1510
2016-06-16T05:55:04.906Z,1620
2016-06-16T05:56:04.956Z,1620
2016-06-16T05:57:04.677Z,1530
2016-06-16T05:58:19.230Z,1525
2016-06-16T06:00:05.092Z,1540
2016-06-16T06:01:19.302Z,1580
2016-06-16T06:02:05.146Z,1575
2016-06-16T06:03:05.195Z,1485
2016-06-16T06:04:05.230Z,1490
2016-06-16T06:05:05.280Z,1510
2016-06-16T06:06:05.298Z,1540
2016-06-16T06:07:05.348Z,1545
2016-06-16T06:08:19.589Z,1510
2016-06-16T06:09:05.418Z,1540
2016-06-16T06:10:05.467Z,1545
2016-06-16T06:11:05.502Z,1495
2016-06-16T06:12:05.692Z,1505
2016-06-16T06:13:05.569Z,1500
2016-06-16T06:14:05.603Z,1440
2016-06-16T06:15:05.654Z,1500
2016-06-16T06:16:05.532Z,1515
2016-06-16T06:17:19.898Z,1450
2016-06-16T06:18:19.948Z,1500
2016-06-16T06:19:05.807Z,1510
2016-06-16T06:20:05.827Z,1495
2016-06-16T06:21:05.875Z,1490
2016-06-16T06:22:05.911Z,1505
2016-06-16T06:23:05.944Z,1470
2016-06-16T06:24:05.979Z,1385
2016-06-16T06:25:06.028Z,1460
2016-06-16T06:26:06.063Z,1500
2016-06-16T06:27:06.144Z,1500
2016-06-16T06:28:06.147Z,1425
2016-06-16T06:29:06.166Z,1445
2016-06-16T06:30:20.406Z,1445
2016-06-16T06:32:06.144Z,1475
2016-06-16T06:33:34.697Z,1360
2016-06-16T06:34:06.369Z,1310
2016-06-16T06:35:06.248Z,1270
2016-06-16T06:36:06.438Z,1310
2016-06-16T06:37:06.316Z,1365
2016-06-16T06:38:06.521Z,1325
2016-06-16T06:39:06.555Z,1345
2016-06-16T06:40:06.591Z,1325
2016-06-16T06:41:06.625Z,1355
2016-06-16T06:42:07.628Z,1350
2016-06-16T06:43:06.725Z,1370
2016-06-16T06:44:06.743Z,1355
2016-06-16T06:45:06.778Z,1365
2016-06-16T06:46:21.018Z,1335
2016-06-16T06:47:06.862Z,1335
2016-06-16T06:48:21.087Z,1345
2016-06-16T06:49:06.947Z,1285
2016-06-16T06:50:06.965Z,1260
2016-06-16T06:51:07.031Z,1270
2016-06-16T06:52:07.049Z,1275
2016-06-16T06:53:06.928Z,1310
2016-06-16T06:54:07.133Z,1275
2016-06-16T06:55:21.358Z,1235
2016-06-16T06:56:07.202Z,1250
2016-06-16T06:57:07.627Z,1225
2016-06-16T06:58:07.286Z,1185
2016-06-16T06:59:07.321Z,1155
2016-06-16T07:00:07.355Z,1085
2016-06-16T07:01:07.405Z,1075
2016-06-16T07:02:21.630Z,1090
2016-06-16T07:03:07.490Z,1025
2016-06-16T07:04:07.524Z,945
2016-06-16T07:05:07.385Z,925
2016-06-16T07:07:07.627Z,790
2016-06-16T07:08:21.852Z,745
2016-06-16T07:09:21.886Z,745
2016-06-16T07:10:07.745Z,730
2016-06-16T07:11:07.623Z,705
2016-06-16T07:12:08.907Z,670
2016-06-16T07:13:08.160Z,630
2016-06-16T07:14:07.898Z,600
2016-06-16T07:15:22.108Z,590
2016-06-16T07:16:36.330Z,585
2016-06-16T07:17:08.002Z,590
2016-06-16T07:18:22.257Z,600
2016-06-16T07:19:08.085Z,625
2016-06-16T07:20:36.498Z,685
2016-06-16T07:21:08.154Z,710
2016-06-16T07:22:22.395Z,755
2016-06-16T07:23:08.254Z,795
2016-06-16T07:24:22.464Z,1000
2016-06-16T07:25:22.529Z,1285
2016-06-16T07:26:08.341Z,1390
2016-06-16T07:27:08.282Z,1365
2016-06-16T07:28:08.425Z,1280
2016-06-16T07:29:08.459Z,1200
2016-06-16T07:30:22.684Z,1150
2016-06-16T07:31:08.544Z,1195
2016-06-16T07:32:08.609Z,1290
2016-06-16T07:33:08.612Z,1170
2016-06-16T07:34:22.682Z,1140
2016-06-16T07:48:36.818Z,1085
2016-06-16T07:48:44.068Z,905
2016-06-16T07:48:56.365Z,900
2016-06-16T07:49:56.383Z,930
2016-06-16T07:50:56.261Z,775
2016-06-16T07:51:56.483Z,890
2016-06-16T07:52:56.502Z,870
2016-06-16T07:53:56.380Z,880
2016-06-16T07:54:56.571Z,595
2016-06-16T07:55:56.605Z,850
2016-06-16T07:56:56.343Z,210
2016-06-16T07:57:56.688Z,855
2016-06-16T07:58:56.723Z,880
2016-06-16T08:00:10.948Z,860
2016-06-16T08:00:56.808Z,840
2016-06-16T08:01:56.842Z,845
2016-06-16T08:02:56.876Z,840
2016-06-16T08:04:11.101Z,800
2016-06-16T08:04:56.789Z,800
2016-06-16T08:05:56.823Z,775
2016-06-16T08:06:56.874Z,780
2016-06-16T08:07:57.064Z,760
2016-06-16T08:08:57.098Z,760
2016-06-16T08:10:57.183Z,710
2016-06-16T08:11:57.060Z,705
2016-06-16T08:12:56.954Z,715
2016-06-16T08:14:11.475Z,705
2016-06-16T08:14:57.162Z,715
2016-06-16T08:15:57.369Z,680
2016-06-16T08:16:57.388Z,675
2016-06-16T08:17:57.438Z,670
2016-06-16T08:18:57.489Z,645
2016-06-16T08:19:57.506Z,645
2016-06-16T08:20:57.541Z,655
2016-06-16T08:22:11.625Z,625
2016-06-16T08:22:57.328Z,600
2016-06-16T08:23:57.676Z,585
2016-06-16T08:24:57.709Z,560
2016-06-16T08:25:57.634Z,560
2016-06-16T08:26:57.637Z,545
2016-06-16T08:28:11.847Z,545
2016-06-16T08:28:57.863Z,540
2016-06-16T08:30:12.072Z,515
2016-06-16T08:30:57.775Z,505
2016-06-16T08:31:57.965Z,495
2016-06-16T08:32:58.015Z,500
2016-06-16T08:33:58.034Z,500
2016-06-16T08:34:57.928Z,515
2016-06-16T08:36:12.138Z,510
2016-06-16T08:36:58.169Z,490
2016-06-16T08:37:58.186Z,485
2016-06-16T08:38:58.081Z,485
2016-06-16T08:39:58.100Z,485
2016-06-16T08:40:58.134Z,475
2016-06-16T08:42:12.547Z,440
2016-06-16T08:43:12.550Z,435
2016-06-16T08:43:58.238Z,405
2016-06-16T08:48:36.534Z,480
2016-06-16T08:48:48.846Z,480
2016-06-16T08:49:48.849Z,460
2016-06-16T08:51:48.777Z,315
2016-06-16T08:53:03.171Z,220
2016-06-16T08:53:48.847Z,310
2016-06-16T08:55:02.944Z,390
2016-06-16T08:55:48.931Z,465
2016-06-16T08:56:48.980Z,460
2016-06-16T08:58:17.515Z,505
2016-06-16T08:58:49.001Z,515
2016-06-16T08:59:49.193Z,510
2016-06-16T09:00:49.071Z,505
2016-06-16T09:01:49.293Z,490
2016-06-16T09:02:49.155Z,505
2016-06-16T09:03:49.033Z,510
2016-06-16T09:05:49.415Z,515
2016-06-16T09:07:49.326Z,510
2016-06-16T09:08:49.204Z,485
2016-06-16T09:09:49.396Z,475
2016-06-16T09:11:03.774Z,455
2016-06-16T09:11:49.464Z,450
2016-06-16T09:12:49.654Z,435
2016-06-16T09:14:03.720Z,405
2016-06-16T09:14:49.598Z,390
2016-06-16T09:15:49.758Z,375
2016-06-16T09:16:49.792Z,365
2016-06-16T09:18:04.014Z,355
2016-06-16T09:18:49.876Z,345
2016-06-16T09:19:49.911Z,340
2016-06-16T09:20:49.929Z,345
2016-06-16T09:21:50.042Z,335
2016-06-16T09:23:04.138Z,330
2016-06-16T09:23:49.907Z,330
2016-06-16T09:24:50.082Z,325
2016-06-16T09:26:04.320Z,330
2016-06-16T09:27:04.338Z,335
2016-06-16T09:27:50.185Z,325
2016-06-16T09:28:50.219Z,335
2016-06-16T09:30:04.285Z,340
2016-06-16T09:30:50.132Z,340
2016-06-16T09:31:49.853Z,330
2016-06-16T09:33:04.544Z,325
2016-06-16T09:33:50.079Z,320
2016-06-16T09:34:50.425Z,315
2016-06-16T09:35:50.304Z,245
2016-06-16T09:37:04.526Z,270
2016-06-16T09:38:04.560Z,300
2016-06-16T09:38:50.421Z,295
2016-06-16T09:40:04.644Z,290
2016-06-16T09:41:04.678Z,285
2016-06-16T09:41:50.525Z,280
2016-06-16T09:42:50.606Z,280
2016-06-16T09:45:04.815Z,280
2016-06-16T09:46:05.084Z,275
2016-06-16T09:47:50.574Z,270
2016-06-16T09:48:50.765Z,270
2016-06-16T09:49:50.800Z,265
2016-06-16T09:50:50.818Z,265
2016-06-16T09:51:50.869Z,265
2016-06-16T09:53:05.075Z,260
2016-06-16T09:53:51.078Z,260
2016-06-16T09:54:51.252Z,260
2016-06-16T09:55:51.006Z,255
2016-06-16T09:58:05.402Z,255
2016-06-16T09:59:05.436Z,255
2016-06-16T10:00:05.314Z,260
2016-06-16T10:01:05.364Z,265
2016-06-16T10:01:51.352Z,260
2016-06-16T10:02:51.387Z,265
2016-06-16T10:03:51.124Z,265
2016-06-16T10:04:51.596Z,265
2016-06-16T10:05:51.333Z,260
2016-06-16T10:06:51.649Z,255
2016-06-16T10:07:53.104Z,255
2016-06-16T10:09:05.905Z,260
2016-06-16T10:09:51.908Z,260
2016-06-16T10:11:51.695Z,265
2016-06-16T10:12:51.714Z,265
2016-06-16T10:13:51.748Z,265
2016-06-16T10:14:51.783Z,265
2016-06-16T10:15:51.505Z,265
2016-06-16T10:17:51.745Z,205
2016-06-16T10:19:06.107Z,155
2016-06-16T10:19:51.955Z,145
2016-06-16T10:20:51.848Z,145
2016-06-16T10:21:51.851Z,155
2016-06-16T10:22:52.042Z,145
2016-06-16T10:23:51.935Z,150
2016-06-16T10:25:06.313Z,165
2016-06-16T10:25:52.160Z,255
2016-06-16T10:26:52.194Z,260
2016-06-16T10:27:52.230Z,265
2016-06-16T10:28:52.091Z,260
2016-06-16T10:29:52.282Z,255
2016-06-16T10:30:52.301Z,255
2016-06-16T10:31:52.351Z,255
2016-06-16T10:33:06.416Z,250
2016-06-16T10:34:06.607Z,250
2016-06-16T10:34:52.453Z,250
2016-06-16T10:35:52.488Z,250
2016-06-16T10:36:52.366Z,250
2016-06-16T10:37:52.385Z,245
2016-06-16T10:38:52.434Z,240
2016-06-16T10:40:06.797Z,225
2016-06-16T10:40:52.332Z,240
2016-06-16T10:41:52.522Z,240
2016-06-16T10:43:06.571Z,240
2016-06-16T10:43:52.418Z,235
2016-06-16T10:44:52.625Z,240
2016-06-16T10:45:52.800Z,240
2016-06-16T10:46:52.522Z,245
2016-06-16T10:48:07.072Z,245
2016-06-16T10:49:07.090Z,245
2016-06-16T10:49:52.937Z,245
2016-06-16T10:50:52.815Z,245
2016-06-16T10:51:52.990Z,250
2016-06-16T10:52:52.868Z,240
2016-06-16T10:53:52.902Z,240
2016-06-16T10:54:53.078Z,240
2016-06-16T10:56:53.147Z,250
2016-06-16T10:57:53.040Z,210
2016-06-16T10:58:53.215Z,230
2016-06-16T11:00:53.284Z,250
2016-06-16T11:02:21.693Z,250
2016-06-16T11:02:53.040Z,250
2016-06-16T11:03:53.231Z,250
2016-06-16T11:07:55.915Z,245
2016-06-16T11:09:40.077Z,250
2016-06-16T11:10:10.030Z,255
2016-06-16T11:10:56.189Z,240
2016-06-16T11:11:56.224Z,270
2016-06-16T11:13:40.340Z,235
2016-06-16T11:14:24.636Z,255
2016-06-16T11:16:56.364Z,225
2016-06-16T11:17:56.258Z,230
2016-06-16T11:19:56.295Z,240
2016-06-16T11:20:56.487Z,245
2016-06-16T11:21:56.521Z,255
2016-06-16T11:23:10.743Z,255
2016-06-16T11:23:56.589Z,265
2016-06-16T11:25:10.795Z,255
2016-06-16T11:25:56.642Z,275
2016-06-16T11:27:10.863Z,270
2016-06-16T11:27:56.554Z,280
2016-06-16T11:28:56.573Z,290
2016-06-16T11:29:56.764Z,300
2016-06-16T11:30:56.813Z,295
2016-06-16T11:31:56.707Z,295
2016-06-16T11:32:56.851Z,295
2016-06-16T11:33:56.902Z,290
2016-06-16T11:34:56.935Z,295
2016-06-16T11:35:56.970Z,295
2016-06-16T11:36:57.004Z,300
2016-06-16T11:37:56.897Z,300
2016-06-16T11:38:57.056Z,300
2016-06-16T11:39:57.091Z,295
2016-06-16T11:40:57.110Z,300
2016-06-16T11:42:11.363Z,310
2016-06-16T11:43:57.244Z,305
2016-06-16T11:44:57.247Z,300
2016-06-16T11:45:57.141Z,295
2016-06-16T11:46:57.316Z,295
2016-06-16T11:48:11.522Z,285
2016-06-16T11:48:57.056Z,285
2016-06-16T11:49:57.403Z,275
2016-06-16T11:50:57.281Z,280
2016-06-16T11:51:57.456Z,275
2016-06-16T11:52:57.491Z,280
2016-06-16T11:53:57.369Z,285
2016-06-16T11:54:57.559Z,275
2016-06-16T11:55:57.437Z,280
2016-06-16T11:56:57.675Z,275
2016-06-16T11:57:57.521Z,270
2016-06-16T11:58:57.760Z,285
2016-06-16T11:59:57.560Z,280
2016-06-16T12:01:11.780Z,275
2016-06-16T12:01:57.628Z,265
2016-06-16T12:02:57.803Z,260
2016-06-16T12:04:12.024Z,255
2016-06-16T12:04:57.871Z,250
2016-06-16T12:05:57.906Z,255
2016-06-16T12:06:57.924Z,255
2016-06-16T12:07:57.990Z,260
2016-06-16T12:09:12.024Z,255
2016-06-16T12:09:57.871Z,250
2016-06-16T12:10:58.061Z,255
2016-06-16T12:11:58.111Z,255
2016-06-16T12:12:57.989Z,255
2016-06-16T12:13:58.148Z,255
2016-06-16T12:14:58.199Z,255
2016-06-16T12:15:58.062Z,255
2016-06-16T12:16:58.251Z,260
2016-06-16T12:17:58.286Z,260
2016-06-16T12:19:12.493Z,255
2016-06-16T12:20:12.386Z,255
2016-06-16T12:20:58.217Z,255
2016-06-16T12:21:58.267Z,255
2016-06-16T12:22:58.286Z,255
2016-06-16T12:24:58.527Z,250
2016-06-16T12:25:58.529Z,250
2016-06-16T12:26:58.579Z,250
2016-06-16T12:27:58.645Z,245
2016-06-16T12:28:58.633Z,245
2016-06-16T12:29:58.511Z,250
2016-06-16T12:30:58.686Z,255
2016-06-16T12:31:58.736Z,265
2016-06-16T12:33:12.926Z,270
2016-06-16T12:33:58.789Z,275
2016-06-16T12:34:58.510Z,275
2016-06-16T12:36:12.873Z,275
2016-06-16T12:36:58.719Z,270
2016-06-16T12:37:58.598Z,270
2016-06-16T12:38:58.961Z,270
2016-06-16T12:39:58.963Z,265
2016-06-16T12:40:58.842Z,265
2016-06-16T12:42:13.219Z,275
2016-06-16T12:42:58.909Z,280
2016-06-16T12:44:13.288Z,280
2016-06-16T12:44:59.134Z,280
2016-06-16T12:45:59.169Z,280
2016-06-16T12:46:59.188Z,275
2016-06-16T12:48:13.410Z,260
2016-06-16T12:48:59.241Z,250
2016-06-16T12:49:59.291Z,250
2016-06-16T12:51:13.512Z,245
2016-06-16T12:52:59.113Z,250
2016-06-16T12:58:48.303Z,235
2016-06-16T12:59:14.772Z,230
2016-06-16T13:00:00.618Z,230
2016-06-16T13:01:00.637Z,225
2016-06-16T13:02:00.672Z,230
2016-06-16T13:04:00.741Z,235
2016-06-16T13:05:00.619Z,240
2016-06-16T13:06:00.808Z,240
2016-06-16T13:07:00.828Z,240
2016-06-16T13:08:00.722Z,240
2016-06-16T13:09:15.068Z,240
2016-06-16T13:10:00.931Z,245
2016-06-16T13:11:00.950Z,250
2016-06-16T13:12:00.672Z,245
2016-06-16T13:13:00.863Z,245
2016-06-16T13:14:01.053Z,250
2016-06-16T13:15:00.775Z,245
2016-06-16T13:16:01.106Z,245
2016-06-16T13:17:00.984Z,245
2016-06-16T13:18:01.159Z,240
2016-06-16T13:19:01.209Z,240
2016-06-16T13:20:01.243Z,235
2016-06-16T13:21:01.105Z,235
2016-06-16T13:22:15.468Z,235
2016-06-16T13:23:01.330Z,230
2016-06-16T13:24:15.397Z,225
2016-06-16T13:25:01.070Z,225
2016-06-16T13:26:01.262Z,225
2016-06-16T13:27:01.123Z,220
2016-06-16T13:28:01.487Z,215
2016-06-16T13:29:15.583Z,215
2016-06-16T13:30:01.540Z,215
2016-06-16T13:31:01.557Z,215
2016-06-16T13:32:15.780Z,220
2016-06-16T13:33:15.658Z,225
2016-06-16T13:34:01.661Z,225
2016-06-16T13:35:15.726Z,230
2016-06-16T13:36:01.729Z,230
2016-06-16T13:37:01.811Z,235
2016-06-16T13:38:01.782Z,240
2016-06-16T13:39:01.660Z,240
2016-06-16T13:40:01.836Z,240
2016-06-16T13:41:01.870Z,245
2016-06-16T13:42:01.780Z,240
2016-06-16T13:43:15.970Z,230
2016-06-16T13:44:01.973Z,225
2016-06-16T13:45:16.195Z,215
2016-06-16T13:46:02.026Z,210
2016-06-16T13:47:02.061Z,205
2016-06-16T13:48:16.282Z,200
2016-06-16T13:49:01.973Z,200
2016-06-16T13:50:02.147Z,200
2016-06-16T13:51:02.197Z,195
2016-06-16T13:52:16.389Z,195
2016-06-16T13:53:02.251Z,200
2016-06-16T13:58:45.872Z,205
2016-06-16T13:59:45.876Z,200
2016-06-16T14:00:59.957Z,205
2016-06-16T14:01:45.804Z,205
2016-06-16T14:03:00.026Z,200
2016-06-16T14:04:00.185Z,200
2016-06-16T14:04:46.032Z,200
2016-06-16T14:05:46.082Z,195
2016-06-16T14:06:46.102Z,195
2016-06-16T14:07:46.119Z,195
2016-06-16T14:08:46.154Z,190
2016-06-16T14:09:46.189Z,185
2016-06-16T14:10:46.223Z,185
2016-06-16T14:11:46.256Z,180
2016-06-16T14:12:46.135Z,180
2016-06-16T14:14:00.498Z,180
2016-06-16T14:15:00.515Z,180
2016-06-16T14:15:46.379Z,180
2016-06-16T14:17:00.586Z,185
2016-06-16T14:18:00.495Z,185
2016-06-16T14:19:00.639Z,190
2016-06-16T14:19:46.518Z,190
2016-06-16T14:20:46.537Z,195
2016-06-16T14:21:46.399Z,200
2016-06-16T14:22:46.574Z,205
2016-06-16T14:24:46.501Z,200
2016-06-16T14:25:46.537Z,200
2016-06-16T14:27:46.746Z,200
2016-06-16T14:28:46.623Z,195
2016-06-16T14:30:01.002Z,195
2016-06-16T14:30:46.661Z,190
2016-06-16T14:31:46.851Z,190
2016-06-16T14:33:15.262Z,190
2016-06-16T14:33:46.923Z,190
2016-06-16T14:34:46.958Z,190
2016-06-16T14:35:46.980Z,190
2016-06-16T14:36:47.016Z,185
2016-06-16T14:37:47.051Z,185
2016-06-16T14:38:47.087Z,180
2016-06-16T14:39:47.137Z,180
2016-06-16T14:40:47.141Z,180
2016-06-16T14:41:46.880Z,175
2016-06-16T14:43:46.934Z,165
2016-06-16T14:45:01.469Z,155
2016-06-16T14:45:47.284Z,155
2016-06-16T14:46:47.320Z,150
2016-06-16T14:47:47.228Z,150
2016-06-16T14:49:01.419Z,145
2016-06-16T14:49:47.266Z,145
2016-06-16T14:50:47.301Z,145
2016-06-16T14:51:47.494Z,145
2016-06-16T14:52:47.356Z,145
2016-06-16T14:53:47.533Z,145
2016-06-16T14:54:47.412Z,145
2016-06-16T14:56:01.806Z,145
2016-06-16T14:56:47.482Z,145
2016-06-16T14:57:47.672Z,145
2016-06-16T14:59:01.879Z,140
2016-06-16T15:01:01.776Z,140
2016-06-16T15:01:47.749Z,140
2016-06-16T15:02:47.674Z,140
2016-06-16T15:04:01.881Z,140
2016-06-16T15:04:47.556Z,140
2016-06-16T15:05:47.902Z,140
2016-06-16T15:07:47.973Z,130
2016-06-16T15:08:47.992Z,130
2016-06-16T15:09:47.904Z,125
2016-06-16T15:10:48.064Z,125
2016-06-16T15:11:47.926Z,125
2016-06-16T15:12:48.118Z,120
2016-06-16T15:13:47.981Z,120
2016-06-16T15:15:16.547Z,115